Time;durP1;ratioP1;P1;durP2;ratioP2;P2;SDS_P1;SDS_P2;PMS_P1;PMS_P2;Temp;Humidity;BMP_temperature;BMP_pressure;BME280_temperature;BME280_humidity;BME280_pressure;Samples;Min_cycle;Max_cycle;Signal;HPM_P1;HPM_P2
2023/06/25 00:00:58;;;;;;;6.97;6.28;;;18.40;64.20;;;;;;5033702;28;20036;-62
2023/06/25 00:03:24;;;;;;;9.70;6.30;;;18.30;64.30;;;;;;5033853;28;20037;-62
2023/06/25 00:05:50;;;;;;;6.45;5.78;;;18.30;64.30;;;;;;5034152;28;20560;-63
2023/06/25 00:08:16;;;;;;;6.10;5.50;;;18.30;64.20;;;;;;5033686;28;20064;-63
2023/06/25 00:10:41;;;;;;;6.75;5.88;;;18.20;64.30;;;;;;5028335;28;20064;-63
2023/06/25 00:13:07;;;;;;;7.75;5.95;;;18.20;64.60;;;;;;5022639;28;20452;-63
2023/06/25 00:15:33;;;;;;;7.32;6.57;;;18.20;64.80;;;;;;5024396;28;20160;-63
2023/06/25 00:17:58;;;;;;;7.07;6.18;;;18.20;64.80;;;;;;5028162;28;20064;-62
2023/06/25 00:20:24;;;;;;;6.72;5.85;;;18.10;64.80;;;;;;5026610;28;20037;-63
2023/06/25 00:22:50;;;;;;;8.43;6.68;;;18.00;64.90;;;;;;5022703;28;20060;-63
2023/06/25 00:25:17;;;;;;;9.38;7.20;;;18.00;65.10;;;;;;5027665;28;20108;-63
2023/06/25 00:27:47;;;;;;;7.97;7.18;;;18.00;65.20;;;;;;5026741;28;20056;-62
2023/06/25 00:30:13;;;;;;;8.10;7.25;;;18.00;65.20;;;;;;5032410;28;20043;-63
2023/06/25 00:32:39;;;;;;;11.93;7.13;;;17.90;65.10;;;;;;5026973;28;20033;-63
2023/06/25 00:35:06;;;;;;;7.65;6.63;;;17.90;65.20;;;;;;5026621;28;20087;-62
2023/06/25 00:37:36;;;;;;;8.18;7.30;;;17.80;65.20;;;;;;5025922;28;20036;-63
2023/06/25 00:40:03;;;;;;;7.10;6.38;;;17.80;65.50;;;;;;5028086;28;20643;-63
2023/06/25 00:42:42;;;;;;;8.30;6.97;;;17.80;65.50;;;;;;5025993;28;20040;-62
2023/06/25 00:45:11;;;;;;;7.38;6.60;;;17.80;66.00;;;;;;5026986;28;20041;-62
2023/06/25 00:47:41;;;;;;;7.75;6.55;;;17.80;65.80;;;;;;5025108;28;20051;-62
2023/06/25 00:50:11;;;;;;;8.00;6.47;;;17.80;65.80;;;;;;5031606;28;20029;-63
2023/06/25 00:52:37;;;;;;;6.50;5.80;;;17.70;65.80;;;;;;5023398;28;20043;-62
2023/06/25 00:55:03;;;;;;;7.75;6.40;;;17.80;65.90;;;;;;5027938;28;20559;-63
2023/06/25 00:57:29;;;;;;;7.70;6.70;;;17.80;65.90;;;;;;5026947;28;20083;-63
2023/06/25 00:59:57;;;;;;;8.02;6.85;;;17.70;65.70;;;;;;5025164;28;20034;-63
2023/06/25 01:02:25;;;;;;;9.00;6.55;;;17.60;65.90;;;;;;5020626;28;20053;-61
2023/06/25 01:05:03;;;;;;;7.75;6.85;;;17.60;66.30;;;;;;5024969;28;20032;-62
2023/06/25 01:07:28;;;;;;;6.80;6.00;;;17.50;66.70;;;;;;5025579;28;20029;-64
2023/06/25 01:09:56;;;;;;;7.68;6.20;;;17.50;66.20;;;;;;5027383;28;20106;-63
2023/06/25 01:12:22;;;;;;;7.70;6.00;;;17.40;66.60;;;;;;5021681;28;20072;-63
2023/06/25 01:14:49;;;;;;;6.60;6.00;;;17.40;66.60;;;;;;5026233;28;20037;-62
2023/06/25 01:17:15;;;;;;;6.90;6.18;;;17.40;66.60;;;;;;5025992;28;20145;-63
2023/06/25 01:19:40;;;;;;;6.80;6.10;;;17.30;66.60;;;;;;5028332;28;20040;-63
2023/06/25 01:22:07;;;;;;;7.05;6.30;;;17.10;66.50;;;;;;5027798;28;20460;-63
2023/06/25 01:24:36;;;;;;;7.43;6.55;;;17.20;66.90;;;;;;5024860;28;20408;-63
2023/06/25 01:27:05;;;;;;;8.20;6.55;;;17.10;67.10;;;;;;5027889;28;20034;-62
2023/06/25 01:29:34;;;;;;;6.97;6.00;;;17.00;67.30;;;;;;5025063;28;20146;-62
2023/06/25 01:32:00;;;;;;;6.78;6.18;;;16.90;67.40;;;;;;5030762;28;20098;-63
2023/06/25 01:34:25;;;;;;;6.90;6.20;;;16.90;67.60;;;;;;5025983;28;20033;-62
2023/06/25 01:36:52;;;;;;;7.05;6.22;;;16.80;67.80;;;;;;5025330;28;20086;-61
2023/06/25 01:39:19;;;;;;;7.15;6.40;;;16.70;68.20;;;;;;5025464;28;20034;-63
2023/06/25 01:41:46;;;;;;;6.63;6.03;;;16.70;68.30;;;;;;5027422;28;20097;-63
2023/06/25 01:44:15;;;;;;;8.18;6.60;;;16.60;68.50;;;;;;5024783;28;20474;-63
2023/06/25 01:46:41;;;;;;;6.78;6.07;;;16.60;68.80;;;;;;5024691;28;20041;-61
2023/06/25 01:49:06;;;;;;;7.00;6.25;;;16.50;68.70;;;;;;5027884;28;20038;-64
2023/06/25 01:51:32;;;;;;;6.57;5.97;;;16.40;69.00;;;;;;5026188;28;20041;-64
2023/06/25 01:53:58;;;;;;;7.85;6.50;;;16.40;69.10;;;;;;5025533;28;20518;-63
2023/06/25 01:56:24;;;;;;;9.15;6.88;;;16.30;69.20;;;;;;5025696;28;20037;-64
2023/06/25 01:58:52;;;;;;;8.10;6.22;;;16.30;69.40;;;;;;5025276;28;20536;-63
2023/06/25 02:01:19;;;;;;;7.30;6.60;;;16.30;69.70;;;;;;5024420;28;20034;-63
2023/06/25 02:03:44;;;;;;;8.23;7.25;;;16.20;69.70;;;;;;5027567;28;20063;-63
2023/06/25 02:06:10;;;;;;;8.68;6.63;;;16.20;69.90;;;;;;5026711;28;20474;-64
2023/06/25 02:08:35;;;;;;;9.27;6.93;;;16.20;70.10;;;;;;5024087;28;20033;-63
2023/06/25 02:11:01;;;;;;;7.30;6.60;;;16.10;70.20;;;;;;5022910;28;20072;-63
2023/06/25 02:13:26;;;;;;;7.63;6.80;;;16.10;70.20;;;;;;5026278;28;20485;-63
2023/06/25 02:15:52;;;;;;;7.63;6.55;;;16.10;70.40;;;;;;5028184;28;20033;-62
2023/06/25 02:18:18;;;;;;;7.68;6.82;;;16.00;70.70;;;;;;5027838;28;20412;-61
2023/06/25 02:20:43;;;;;;;7.70;6.85;;;16.00;70.80;;;;;;5028953;28;20034;-63
2023/06/25 02:23:09;;;;;;;7.72;6.28;;;16.00;70.90;;;;;;5023056;28;20052;-63
2023/06/25 02:25:34;;;;;;;8.25;6.82;;;15.90;70.90;;;;;;5026311;28;20029;-63
2023/06/25 02:28:00;;;;;;;7.63;6.80;;;15.90;71.00;;;;;;5029248;28;20037;-62
2023/06/25 02:30:25;;;;;;;7.72;6.90;;;15.90;71.10;;;;;;5031427;28;20599;-63
2023/06/25 02:32:51;;;;;;;8.13;6.85;;;15.90;71.30;;;;;;5027002;28;20048;-63
2023/06/25 02:35:16;;;;;;;7.88;6.72;;;15.80;71.40;;;;;;5026467;28;20025;-63
2023/06/25 02:37:42;;;;;;;9.07;6.70;;;15.80;71.60;;;;;;5026413;28;20270;-64
2023/06/25 02:40:09;;;;;;;8.02;6.75;;;15.70;71.70;;;;;;5032729;28;20037;-64
2023/06/25 02:42:35;;;;;;;8.60;6.50;;;15.70;72.10;;;;;;5029743;28;20033;-63
2023/06/25 02:45:01;;;;;;;8.60;7.10;;;15.70;72.00;;;;;;5029170;28;20557;-62
2023/06/25 02:47:26;;;;;;;8.00;6.75;;;15.60;72.10;;;;;;5027996;28;20026;-62
2023/06/25 02:49:52;;;;;;;7.57;6.82;;;15.60;72.30;;;;;;5030406;28;20041;-62
2023/06/25 02:52:17;;;;;;;7.70;6.90;;;15.70;72.50;;;;;;5029220;28;20769;-62
2023/06/25 02:54:43;;;;;;;8.43;7.03;;;15.60;72.60;;;;;;5026758;28;20476;-63
2023/06/25 02:57:08;;;;;;;9.15;7.43;;;15.60;72.80;;;;;;5027664;28;20033;-63
2023/06/25 02:59:34;;;;;;;8.52;7.63;;;15.60;73.00;;;;;;5026624;28;20913;-63
2023/06/25 03:02:00;;;;;;;8.00;7.20;;;15.60;73.10;;;;;;5031254;28;20433;-61
2023/06/25 03:04:25;;;;;;;8.85;7.78;;;15.50;73.30;;;;;;5032391;28;20034;-63
2023/06/25 03:06:51;;;;;;;9.88;7.10;;;15.60;73.40;;;;;;5032154;28;20040;-63
2023/06/25 03:09:17;;;;;;;8.18;7.35;;;15.60;73.50;;;;;;5028452;28;20041;-63
2023/06/25 03:11:42;;;;;;;8.52;7.45;;;15.60;73.30;;;;;;5026352;28;20488;-63
2023/06/25 03:14:08;;;;;;;8.75;6.70;;;15.60;73.20;;;;;;5032609;28;20581;-62
2023/06/25 03:16:33;;;;;;;9.30;7.22;;;15.60;73.10;;;;;;5030243;28;20112;-61
2023/06/25 03:19:00;;;;;;;8.40;7.35;;;15.70;73.10;;;;;;5027851;28;20441;-62
2023/06/25 03:21:26;;;;;;;7.80;7.00;;;15.70;73.10;;;;;;5033192;28;20045;-62
2023/06/25 03:23:52;;;;;;;9.85;7.45;;;15.70;73.10;;;;;;5029729;28;20485;-63
2023/06/25 03:26:17;;;;;;;7.78;6.90;;;15.80;73.10;;;;;;5031321;28;20566;-63
2023/06/25 03:28:43;;;;;;;8.68;6.85;;;15.80;72.90;;;;;;5025501;28;20041;-63
2023/06/25 03:31:09;;;;;;;7.82;7.03;;;15.90;72.90;;;;;;5029830;28;20456;-63
2023/06/25 03:33:34;;;;;;;8.05;6.32;;;15.80;72.70;;;;;;5029363;28;20040;-62
2023/06/25 03:36:00;;;;;;;7.57;6.88;;;15.80;72.80;;;;;;5033443;28;20102;-63
2023/06/25 03:38:25;;;;;;;7.93;7.05;;;15.90;72.80;;;;;;5031591;28;20462;-63
2023/06/25 03:40:51;;;;;;;7.55;6.82;;;15.80;72.60;;;;;;5028628;28;20124;-60
2023/06/25 03:43:17;;;;;;;7.35;6.50;;;15.90;72.60;;;;;;5029359;28;20033;-62
2023/06/25 03:45:42;;;;;;;7.07;6.38;;;15.90;72.60;;;;;;5028711;28;20032;-63
2023/06/25 03:48:08;;;;;;;7.47;6.75;;;15.90;72.60;;;;;;5026145;28;20025;-63
2023/06/25 03:50:33;;;;;;;6.93;6.20;;;16.00;72.50;;;;;;5027124;28;20492;-63
2023/06/25 03:53:00;;;;;;;14.18;7.38;;;15.90;72.30;;;;;;5032132;28;20079;-63
2023/06/25 03:55:26;;;;;;;9.30;7.32;;;16.00;72.30;;;;;;5027039;28;20501;-63
2023/06/25 03:57:54;;;;;;;7.65;6.88;;;16.00;72.30;;;;;;5027727;28;20077;-61
2023/06/25 04:00:19;;;;;;;8.98;7.22;;;15.90;73.00;;;;;;5027607;28;20688;-63
2023/06/25 04:02:45;;;;;;;8.40;6.97;;;15.90;72.10;;;;;;5026092;28;20114;-63
2023/06/25 04:05:10;;;;;;;8.63;7.05;;;15.90;72.40;;;;;;5031255;28;20128;-63
2023/06/25 04:07:37;;;;;;;7.53;6.75;;;15.90;72.60;;;;;;5033283;28;20124;-62
2023/06/25 04:10:03;;;;;;;7.50;6.72;;;15.80;72.70;;;;;;5026061;28;20116;-63
2023/06/25 04:12:28;;;;;;;8.45;6.78;;;15.80;72.80;;;;;;5025879;28;20029;-62
2023/06/25 04:14:54;;;;;;;9.38;6.72;;;15.80;73.00;;;;;;5027353;28;20040;-63
2023/06/25 04:17:20;;;;;;;7.93;6.75;;;15.80;73.20;;;;;;5028686;28;20033;-62
2023/06/25 04:19:45;;;;;;;9.43;7.20;;;15.70;73.20;;;;;;5031678;28;20198;-62
2023/06/25 04:22:11;;;;;;;7.55;6.38;;;15.80;73.50;;;;;;5028589;28;20052;-61
2023/06/25 04:24:36;;;;;;;7.70;6.75;;;15.70;73.50;;;;;;5027785;28;20049;-62
2023/06/25 04:27:02;;;;;;;9.90;7.35;;;15.80;73.70;;;;;;5032175;28;20045;-63
2023/06/25 04:29:28;;;;;;;8.15;7.35;;;15.80;73.90;;;;;;5033704;28;20039;-63
2023/06/25 04:31:53;;;;;;;8.05;7.25;;;15.80;74.90;;;;;;5024621;28;20041;-63
2023/06/25 04:34:19;;;;;;;8.52;7.63;;;15.70;74.20;;;;;;5027204;28;20037;-62
2023/06/25 04:36:44;;;;;;;9.93;8.07;;;15.70;74.30;;;;;;5032217;28;20070;-63
2023/06/25 04:39:10;;;;;;;8.40;7.53;;;15.80;74.60;;;;;;5029244;28;20123;-63
2023/06/25 04:41:36;;;;;;;9.95;7.82;;;15.70;74.90;;;;;;5026628;28;20519;-62
2023/06/25 04:44:01;;;;;;;8.65;7.78;;;15.80;75.20;;;;;;5026249;28;20041;-63
2023/06/25 04:46:27;;;;;;;10.15;8.43;;;15.80;75.40;;;;;;5029577;28;20459;-61
2023/06/25 04:48:52;;;;;;;10.10;7.85;;;15.80;75.60;;;;;;5031009;28;21572;-63
2023/06/25 04:51:18;;;;;;;8.52;7.22;;;15.80;76.00;;;;;;5031098;28;20041;-63
2023/06/25 04:53:43;;;;;;;9.05;7.75;;;15.80;76.10;;;;;;5029135;28;20037;-61
2023/06/25 04:56:09;;;;;;;9.52;7.63;;;15.80;76.10;;;;;;5028760;28;20032;-60
2023/06/25 04:58:35;;;;;;;10.90;8.30;;;15.90;76.30;;;;;;5026849;28;20029;-62
2023/06/25 05:01:02;;;;;;;8.82;7.85;;;16.00;76.60;;;;;;5027656;28;20099;-63
2023/06/25 05:03:28;;;;;;;10.32;8.43;;;16.00;77.70;;;;;;5028349;28;20038;-63
2023/06/25 05:05:54;;;;;;;8.80;7.95;;;16.10;77.00;;;;;;5027800;28;20037;-63
2023/06/25 05:08:20;;;;;;;9.10;8.20;;;16.20;77.10;;;;;;5032323;28;20029;-63
2023/06/25 05:10:45;;;;;;;9.18;8.07;;;16.30;77.00;;;;;;5023781;28;20105;-62
2023/06/25 05:13:11;;;;;;;9.25;7.95;;;16.40;76.90;;;;;;5029255;28;20060;-63
2023/06/25 05:15:41;;;;;;;10.48;7.60;;;16.50;76.70;;;;;;5028494;28;20111;-63
2023/06/25 05:18:10;;;;;;;8.77;7.80;;;16.60;76.60;;;;;;5030845;28;20037;-62
2023/06/25 05:20:36;;;;;;;11.27;7.78;;;16.70;76.80;;;;;;5029845;28;20443;-63
2023/06/25 05:23:06;;;;;;;8.82;7.70;;;16.80;77.50;;;;;;5028725;28;20479;-63
2023/06/25 05:25:32;;;;;;;9.93;8.38;;;16.90;77.20;;;;;;5031783;28;20401;-63
2023/06/25 05:27:58;;;;;;;9.80;8.30;;;17.00;76.60;;;;;;5033522;28;20406;-63
2023/06/25 05:30:25;;;;;;;8.90;7.75;;;17.10;76.30;;;;;;5032618;28;20037;-63
2023/06/25 05:32:50;;;;;;;10.25;7.80;;;17.10;75.80;;;;;;5030916;28;20042;-63
2023/06/25 05:35:16;;;;;;;8.95;8.05;;;17.30;75.60;;;;;;5033126;28;20501;-63
2023/06/25 05:37:41;;;;;;;9.90;8.43;;;17.40;75.60;;;;;;5033606;28;20485;-63
2023/06/25 05:40:08;;;;;;;8.90;7.93;;;17.50;75.40;;;;;;5030762;28;20417;-62
2023/06/25 05:42:33;;;;;;;9.32;8.43;;;17.60;75.30;;;;;;5025213;28;20037;-63
2023/06/25 05:44:59;;;;;;;8.82;7.75;;;17.60;76.10;;;;;;5027218;28;20056;-63
2023/06/25 05:47:24;;;;;;;9.95;7.60;;;17.70;74.90;;;;;;5029523;28;20048;-63
2023/06/25 05:49:50;;;;;;;9.35;8.02;;;17.80;74.70;;;;;;5024554;28;20439;-63
2023/06/25 05:52:15;;;;;;;10.02;8.27;;;17.90;74.70;;;;;;5023469;28;20065;-63
2023/06/25 05:54:41;;;;;;;8.85;7.95;;;18.00;74.70;;;;;;5024133;28;20032;-62
2023/06/25 05:57:06;;;;;;;8.48;7.65;;;18.10;74.40;;;;;;5028499;28;20041;-63
2023/06/25 05:59:32;;;;;;;10.13;7.45;;;18.20;74.20;;;;;;5023103;28;20033;-63
2023/06/25 06:01:58;;;;;;;8.55;7.63;;;18.40;74.10;;;;;;5023886;28;20462;-63
2023/06/25 06:04:23;;;;;;;8.63;7.72;;;18.50;74.10;;;;;;5025081;28;20524;-63
2023/06/25 06:06:49;;;;;;;10.27;8.23;;;18.60;73.80;;;;;;5028421;28;20177;-63
2023/06/25 06:09:14;;;;;;;9.48;8.18;;;18.70;73.50;;;;;;5030560;28;20065;-63
2023/06/25 06:11:40;;;;;;;10.68;8.50;;;18.80;73.40;;;;;;5027580;28;20052;-62
2023/06/25 06:14:06;;;;;;;8.85;7.95;;;18.90;72.80;;;;;;5029089;28;20030;-62
2023/06/25 06:16:31;;;;;;;11.30;8.05;;;19.00;72.60;;;;;;5028148;28;20029;-63
2023/06/25 06:18:57;;;;;;;8.43;7.53;;;19.10;72.30;;;;;;5028261;28;20413;-64
2023/06/25 06:21:22;;;;;;;9.02;7.57;;;19.20;72.10;;;;;;5034124;28;20095;-63
2023/06/25 06:23:48;;;;;;;9.02;7.95;;;19.30;72.30;;;;;;5032290;28;20041;-62
2023/06/25 06:26:15;;;;;;;9.13;7.75;;;19.30;72.20;;;;;;5032863;28;20044;-64
2023/06/25 06:28:41;;;;;;;9.80;7.10;;;19.40;71.60;;;;;;5033940;28;20072;-63
2023/06/25 06:31:07;;;;;;;7.97;7.18;;;19.50;71.10;;;;;;5030618;28;20061;-62
2023/06/25 06:33:32;;;;;;;8.43;7.60;;;19.60;70.70;;;;;;5029538;28;20021;-62
2023/06/25 06:35:58;;;;;;;7.72;6.93;;;19.70;70.40;;;;;;5028184;28;20037;-63
2023/06/25 06:38:23;;;;;;;8.40;7.43;;;19.80;70.20;;;;;;5028423;28;20040;-62
2023/06/25 06:40:49;;;;;;;8.80;7.90;;;19.90;70.40;;;;;;5029535;28;20092;-63
2023/06/25 06:43:15;;;;;;;9.15;7.93;;;19.90;69.90;;;;;;5032520;28;20037;-63
2023/06/25 06:45:40;;;;;;;9.00;8.05;;;20.10;69.80;;;;;;5026306;28;20062;-62
2023/06/25 06:48:06;;;;;;;9.48;8.48;;;20.10;69.80;;;;;;5025243;28;20033;-63
2023/06/25 06:50:32;;;;;;;8.05;7.18;;;20.20;69.10;;;;;;5028732;28;20029;-63
2023/06/25 06:52:58;;;;;;;8.48;7.68;;;20.20;69.20;;;;;;5010629;28;20107;-63
2023/06/25 06:55:23;;;;;;;8.32;7.45;;;20.30;69.10;;;;;;5022333;28;20460;-63
2023/06/25 06:57:49;;;;;;;9.45;7.95;;;20.40;68.80;;;;;;5021432;28;20046;-63
2023/06/25 07:00:17;;;;;;;8.52;7.47;;;20.50;68.80;;;;;;5022244;28;20681;-63
2023/06/25 07:02:43;;;;;;;9.18;8.20;;;20.60;68.30;;;;;;5011665;28;20041;-62
2023/06/25 07:05:09;;;;;;;8.80;7.57;;;20.70;68.40;;;;;;5022184;28;20160;-63
2023/06/25 07:07:34;;;;;;;8.65;7.75;;;20.80;68.70;;;;;;5019961;28;20030;-63
2023/06/25 07:10:00;;;;;;;7.38;6.63;;;20.80;68.00;;;;;;5028994;28;20059;-63
2023/06/25 07:12:26;;;;;;;8.30;7.38;;;21.00;67.70;;;;;;5021235;28;20032;-63
2023/06/25 07:14:51;;;;;;;7.35;6.65;;;21.10;66.90;;;;;;5024005;28;20127;-63
2023/06/25 07:17:17;;;;;;;7.80;7.10;;;21.20;67.00;;;;;;5020786;28;20022;-63
2023/06/25 07:19:42;;;;;;;7.85;7.05;;;21.30;66.70;;;;;;5032560;28;20037;-62
2023/06/25 07:22:08;;;;;;;8.05;7.05;;;21.40;66.30;;;;;;5032973;28;20083;-63
2023/06/25 07:24:34;;;;;;;8.25;7.07;;;21.50;66.10;;;;;;5023915;28;20307;-62
2023/06/25 07:27:00;;;;;;;7.20;6.50;;;21.60;65.70;;;;;;5030815;28;20563;-61
2023/06/25 07:29:25;;;;;;;7.57;6.85;;;21.70;65.10;;;;;;5024821;28;20120;-61
2023/06/25 07:31:51;;;;;;;6.47;5.43;;;21.80;64.50;;;;;;5022854;28;20057;-63
2023/06/25 07:34:16;;;;;;;7.55;6.75;;;21.80;64.50;;;;;;5024168;28;20034;-62
2023/06/25 07:36:42;;;;;;;7.95;6.30;;;22.00;63.50;;;;;;5024912;28;20057;-62
2023/06/25 07:39:07;;;;;;;5.93;5.32;;;22.10;63.10;;;;;;5030637;28;20042;-61
2023/06/25 07:41:33;;;;;;;6.53;5.88;;;22.10;63.40;;;;;;5030043;28;20029;-63
2023/06/25 07:43:58;;;;;;;5.88;5.25;;;22.20;63.50;;;;;;5029330;28;20515;-63
2023/06/25 07:46:24;;;;;;;6.65;5.15;;;22.40;63.20;;;;;;5032748;28;20037;-63
2023/06/25 07:48:50;;;;;;;4.40;3.97;;;22.50;62.00;;;;;;5020681;28;20045;-63
2023/06/25 07:51:15;;;;;;;4.35;3.95;;;22.60;61.10;;;;;;5032488;28;20033;-63
2023/06/25 07:53:41;;;;;;;5.97;3.88;;;22.80;60.30;;;;;;5029047;28;20308;-61
2023/06/25 07:56:07;;;;;;;4.20;3.63;;;22.90;59.70;;;;;;5020780;28;20049;-63
2023/06/25 07:58:33;;;;;;;4.13;3.63;;;23.00;59.20;;;;;;5026797;28;20067;-62
2023/06/25 08:00:59;;;;;;;4.18;3.78;;;23.20;59.00;;;;;;5028722;28;20399;-63
2023/06/25 08:03:28;;;;;;;3.92;3.53;;;23.30;58.50;;;;;;5020497;28;20043;-63
2023/06/25 08:05:53;;;;;;;3.70;3.40;;;23.50;58.20;;;;;;5024958;28;20033;-63
2023/06/25 08:08:19;;;;;;;4.10;3.80;;;23.60;57.70;;;;;;5024490;28;20025;-63
2023/06/25 08:10:44;;;;;;;4.32;3.30;;;23.80;57.00;;;;;;5028284;28;20029;-61
2023/06/25 08:13:10;;;;;;;3.97;3.63;;;23.90;57.40;;;;;;5024109;28;20048;-61
2023/06/25 08:15:35;;;;;;;3.75;3.30;;;24.10;56.50;;;;;;5024034;28;20041;-61
2023/06/25 08:18:01;;;;;;;3.83;3.35;;;24.20;56.80;;;;;;5024590;28;20050;-62
2023/06/25 08:20:27;;;;;;;4.90;3.45;;;24.30;55.50;;;;;;5029148;28;20113;-61
2023/06/25 08:22:52;;;;;;;3.45;3.15;;;24.50;55.50;;;;;;5024196;28;20413;-61
2023/06/25 08:25:26;;;;;;;3.85;3.55;;;24.60;54.80;;;;;;5027046;28;20037;-61
2023/06/25 08:27:52;;;;;;;3.67;3.27;;;24.70;54.40;;;;;;5026568;28;20047;-60
2023/06/25 08:30:18;;;;;;;3.30;3.00;;;24.90;54.40;;;;;;5026008;28;20053;-60
2023/06/25 08:32:44;;;;;;;3.50;3.20;;;25.00;53.80;;;;;;5023354;28;20050;-61
2023/06/25 08:35:10;;;;;;;3.05;2.85;;;25.10;53.10;;;;;;5024760;28;20147;-61
2023/06/25 08:37:35;;;;;;;3.20;2.95;;;25.20;53.10;;;;;;5023014;28;20037;-61
2023/06/25 08:40:01;;;;;;;4.07;2.95;;;25.40;53.00;;;;;;5029246;28;20033;-62
2023/06/25 08:42:28;;;;;;;3.05;2.75;;;25.50;52.50;;;;;;5030832;28;20065;-61
2023/06/25 08:44:55;;;;;;;3.45;3.20;;;25.60;52.00;;;;;;5029028;28;20521;-62
2023/06/25 08:47:24;;;;;;;3.17;2.97;;;25.80;52.10;;;;;;5029172;28;20033;-59
2023/06/25 08:49:53;;;;;;;3.78;3.17;;;25.90;51.20;;;;;;5032554;28;20417;-61
2023/06/25 08:52:20;;;;;;;3.50;3.20;;;26.00;51.10;;;;;;5029515;28;20124;-63
2023/06/25 08:54:46;;;;;;;3.88;3.03;;;26.10;50.70;;;;;;5029105;28;20048;-62
2023/06/25 08:57:12;;;;;;;3.50;3.20;;;26.30;50.60;;;;;;5032717;28;20025;-61
2023/06/25 08:59:37;;;;;;;3.25;2.95;;;26.30;49.90;;;;;;5032533;28;20037;-62
2023/06/25 09:02:03;;;;;;;4.07;3.15;;;26.40;49.90;;;;;;5028921;28;20436;-61
2023/06/25 09:04:29;;;;;;;3.30;3.00;;;26.50;49.50;;;;;;5030116;28;20062;-60
2023/06/25 09:06:54;;;;;;;4.18;2.70;;;26.60;49.40;;;;;;5030002;28;20072;-61
2023/06/25 09:09:20;;;;;;;3.22;3.03;;;26.70;49.20;;;;;;5031147;28;20506;-61
2023/06/25 09:11:46;;;;;;;3.47;3.17;;;26.80;48.40;;;;;;5026503;28;20087;-63
2023/06/25 09:14:12;;;;;;;4.80;3.13;;;26.90;48.40;;;;;;5029305;28;20060;-61
2023/06/25 09:16:48;;;;;;;4.65;3.08;;;27.00;47.80;;;;;;5029571;28;20033;-60
2023/06/25 09:19:18;;;;;;;3.92;3.53;;;27.10;46.60;;;;;;5030183;28;20038;-62
2023/06/25 09:21:44;;;;;;;3.75;3.10;;;27.20;46.90;;;;;;5016781;28;20501;-62
2023/06/25 09:24:15;;;;;;;4.53;3.05;;;27.30;48.20;;;;;;5022436;28;20054;-62
2023/06/25 09:26:50;;;;;;;3.40;3.10;;;27.40;47.40;;;;;;5021996;28;20120;-59
2023/06/25 09:29:18;;;;;;;3.10;2.80;;;27.50;46.70;;;;;;5027752;28;20033;-62
2023/06/25 09:31:45;;;;;;;3.28;3.00;;;27.60;47.00;;;;;;5027510;28;20117;-62
2023/06/25 09:34:13;;;;;;;3.05;2.85;;;27.60;46.20;;;;;;5017290;28;20032;-63
2023/06/25 09:36:39;;;;;;;3.22;2.92;;;27.70;45.50;;;;;;5020530;28;20095;-61
2023/06/25 09:39:06;;;;;;;3.50;3.20;;;27.70;45.10;;;;;;5027748;28;20030;-62
2023/06/25 09:41:36;;;;;;;3.50;3.20;;;27.80;45.20;;;;;;5025903;28;20515;-63
2023/06/25 09:44:04;;;;;;;3.50;2.47;;;27.80;45.20;;;;;;5028333;28;20598;-62
2023/06/25 09:46:34;;;;;;;3.45;2.92;;;27.90;45.40;;;;;;5019886;28;20443;-64
2023/06/25 09:49:03;;;;;;;3.28;2.97;;;28.00;45.30;;;;;;5029591;28;20064;-63
2023/06/25 09:51:45;;;;;;;3.50;3.28;;;28.00;44.80;;;;;;5037248;28;20037;-63
2023/06/25 09:54:15;;;;;;;3.42;2.88;;;28.10;43.90;;;;;;5031659;28;20407;-65
2023/06/25 09:56:43;;;;;;;4.32;3.33;;;28.20;45.20;;;;;;5033525;28;20497;-63
2023/06/25 09:59:09;;;;;;;4.43;3.05;;;28.30;44.30;;;;;;5038463;28;20041;-63
2023/06/25 10:01:36;;;;;;;2.85;2.65;;;28.30;44.40;;;;;;5034673;28;20516;-63
2023/06/25 10:04:02;;;;;;;2.90;2.70;;;28.40;44.30;;;;;;5035501;28;20036;-63
2023/06/25 10:06:28;;;;;;;3.03;2.83;;;28.40;44.00;;;;;;5037770;28;20041;-61
2023/06/25 10:08:54;;;;;;;3.47;3.17;;;28.50;43.50;;;;;;5037058;28;20334;-63
2023/06/25 10:11:20;;;;;;;3.65;3.35;;;28.60;43.60;;;;;;5034416;28;20034;-63
2023/06/25 10:13:46;;;;;;;3.17;2.90;;;28.60;43.30;;;;;;5036454;28;20043;-63
2023/06/25 10:16:21;;;;;;;3.05;2.85;;;28.70;43.10;;;;;;5038298;28;20037;-62
2023/06/25 10:18:47;;;;;;;2.90;2.70;;;28.70;42.90;;;;;;5033950;28;20041;-63
2023/06/25 10:21:21;;;;;;;3.78;3.40;;;28.80;43.40;;;;;;5036691;28;20029;-63
2023/06/25 10:24:01;;;;;;;3.15;2.88;;;28.90;41.20;;;;;;5029610;28;20037;-63
2023/06/25 10:26:33;;;;;;;3.08;2.78;;;29.00;41.70;;;;;;5036498;28;20033;-64
2023/06/25 10:29:01;;;;;;;3.15;2.85;;;29.00;41.80;;;;;;5037400;28;20512;-63
2023/06/25 10:31:35;;;;;;;2.92;2.72;;;29.10;42.40;;;;;;5028783;28;20058;-63
2023/06/25 10:34:05;;;;;;;3.17;2.88;;;29.10;41.80;;;;;;5033543;28;20026;-61
2023/06/25 10:36:31;;;;;;;3.08;2.88;;;29.20;41.50;;;;;;5033324;28;20492;-61
2023/06/25 10:38:58;;;;;;;3.13;2.92;;;29.20;41.30;;;;;;5027948;28;20136;-61
2023/06/25 10:41:31;;;;;;;3.28;2.97;;;29.30;41.40;;;;;;5028105;28;20203;-62
2023/06/25 10:43:58;;;;;;;3.65;3.20;;;29.30;40.40;;;;;;5029094;28;20037;-61
2023/06/25 10:46:31;;;;;;;3.10;2.90;;;29.40;40.80;;;;;;5030672;28;20759;-62
2023/06/25 10:48:59;;;;;;;3.30;3.00;;;29.50;40.20;;;;;;5036133;28;20389;-61
2023/06/25 10:51:26;;;;;;;3.30;3.00;;;29.50;40.70;;;;;;5031315;28;20033;-61
2023/06/25 10:53:55;;;;;;;3.00;2.80;;;29.50;40.10;;;;;;5034195;28;20030;-62
2023/06/25 10:56:22;;;;;;;3.10;2.90;;;29.60;39.80;;;;;;5030716;28;20099;-62
2023/06/25 10:58:57;;;;;;;3.08;2.88;;;29.60;39.80;;;;;;5033040;28;20033;-61
2023/06/25 11:01:23;;;;;;;3.78;2.90;;;29.60;39.60;;;;;;5035166;28;20583;-61
2023/06/25 11:03:49;;;;;;;3.10;2.90;;;29.70;40.00;;;;;;5034944;28;20033;-62
2023/06/25 11:06:14;;;;;;;3.45;3.10;;;29.80;39.80;;;;;;5033881;28;20033;-60
2023/06/25 11:08:43;;;;;;;3.05;2.83;;;29.80;39.40;;;;;;5032281;28;20034;-62
2023/06/25 11:11:09;;;;;;;3.03;2.83;;;29.80;38.20;;;;;;5027928;28;20121;-62
2023/06/25 11:13:34;;;;;;;3.17;2.97;;;29.80;38.50;;;;;;5032896;28;20117;-62
2023/06/25 11:16:00;;;;;;;3.70;3.15;;;29.90;38.50;;;;;;5035333;28;20048;-62
2023/06/25 11:18:26;;;;;;;4.28;3.38;;;29.90;38.50;;;;;;5034177;28;20033;-61
2023/06/25 11:20:53;;;;;;;3.47;3.17;;;29.90;38.50;;;;;;5031385;28;20037;-61
2023/06/25 11:23:19;;;;;;;3.33;3.03;;;29.90;38.10;;;;;;5034319;28;20061;-61
2023/06/25 11:25:44;;;;;;;3.03;2.72;;;30.00;38.20;;;;;;5034591;28;20107;-62
2023/06/25 11:28:13;;;;;;;2.97;2.78;;;30.10;38.10;;;;;;5033459;28;20492;-61
2023/06/25 11:30:40;;;;;;;3.20;3.00;;;30.10;37.90;;;;;;5032519;28;20038;-62
2023/06/25 11:33:10;;;;;;;3.10;2.80;;;30.10;38.00;;;;;;5033726;28;20057;-61
2023/06/25 11:35:36;;;;;;;3.28;2.83;;;30.10;38.00;;;;;;5033976;28;20117;-61
2023/06/25 11:38:01;;;;;;;3.25;2.97;;;30.20;38.30;;;;;;5036341;28;20632;-62
2023/06/25 11:40:29;;;;;;;3.38;2.92;;;30.20;38.50;;;;;;5035255;28;20041;-61
2023/06/25 11:42:55;;;;;;;3.30;3.10;;;30.20;37.50;;;;;;5034989;28;20044;-60
2023/06/25 11:45:21;;;;;;;3.22;3.03;;;30.20;37.10;;;;;;5034843;28;20036;-64
2023/06/25 11:47:55;;;;;;;5.43;3.10;;;30.20;36.60;;;;;;5030809;28;20043;-63
2023/06/25 11:50:24;;;;;;;3.20;2.90;;;30.30;37.20;;;;;;5036058;28;20056;-62
2023/06/25 11:52:54;;;;;;;3.65;3.35;;;30.30;36.40;;;;;;5031315;28;20832;-61
2023/06/25 11:55:21;;;;;;;3.22;2.92;;;30.30;34.50;;;;;;5029674;28;20046;-62
2023/06/25 11:57:48;;;;;;;3.28;3.08;;;30.20;35.40;;;;;;5026072;28;20071;-62
2023/06/25 12:00:14;;;;;;;3.67;3.38;;;30.20;34.50;;;;;;5023213;28;20124;-61
2023/06/25 12:02:39;;;;;;;3.50;3.20;;;30.20;35.60;;;;;;5032248;28;20038;-62
2023/06/25 12:05:06;;;;;;;3.00;2.80;;;30.10;36.10;;;;;;5031152;28;20029;-61
2023/06/25 12:07:31;;;;;;;2.95;2.70;;;30.10;36.60;;;;;;5028294;28;20412;-62
2023/06/25 12:09:57;;;;;;;3.45;3.15;;;30.10;36.40;;;;;;5028859;28;20036;-62
2023/06/25 12:12:23;;;;;;;3.30;3.10;;;30.10;36.80;;;;;;5022075;28;20280;-62
2023/06/25 12:14:49;;;;;;;3.10;2.90;;;30.20;36.70;;;;;;5025493;28;20049;-62
2023/06/25 12:17:15;;;;;;;5.63;3.40;;;30.20;36.80;;;;;;5031360;28;20033;-63
2023/06/25 12:19:41;;;;;;;3.45;3.17;;;30.30;36.50;;;;;;5032348;28;20033;-62
2023/06/25 12:22:07;;;;;;;3.25;3.05;;;30.30;36.30;;;;;;5035041;28;20048;-62
2023/06/25 12:24:33;;;;;;;3.25;3.00;;;30.40;36.60;;;;;;5031754;28;20509;-62
2023/06/25 12:26:59;;;;;;;3.28;3.00;;;30.40;36.10;;;;;;5031742;28;20053;-63
2023/06/25 12:29:24;;;;;;;3.35;3.05;;;30.50;35.70;;;;;;5036034;28;20075;-62
2023/06/25 12:31:50;;;;;;;3.15;2.85;;;30.50;36.00;;;;;;5033778;28;20680;-62
2023/06/25 12:34:15;;;;;;;3.60;3.30;;;30.50;35.60;;;;;;5029699;28;20033;-62
2023/06/25 12:36:41;;;;;;;6.05;2.95;;;30.50;35.00;;;;;;5031689;28;20083;-62
2023/06/25 12:39:07;;;;;;;3.20;2.90;;;30.50;35.00;;;;;;5030379;28;20045;-62
2023/06/25 12:41:32;;;;;;;3.63;3.38;;;30.50;34.60;;;;;;5032358;28;20033;-62